createdAt,value
2019-01-29T00:00:43.273Z,1.80
2019-01-29T00:03:16.017Z,1.70
2019-01-29T00:05:48.662Z,1.80
2019-01-29T00:08:21.367Z,1.80
2019-01-29T00:10:54.214Z,1.80
2019-01-29T00:13:26.900Z,1.90
2019-01-29T00:15:59.168Z,1.80
2019-01-29T00:18:31.679Z,1.80
2019-01-29T00:21:04.507Z,1.70
2019-01-29T00:23:36.898Z,1.80
2019-01-29T00:26:09.381Z,1.80
2019-01-29T00:28:41.931Z,1.80
2019-01-29T00:31:14.338Z,1.70
2019-01-29T00:33:46.696Z,1.70
2019-01-29T00:36:19.337Z,1.70
2019-01-29T00:38:51.741Z,1.70
2019-01-29T00:41:24.032Z,1.60
2019-01-29T00:43:56.402Z,1.50
2019-01-29T00:46:28.721Z,1.50
2019-01-29T00:49:01.281Z,1.40
2019-01-29T00:51:33.787Z,1.50
2019-01-29T00:54:06.577Z,1.60
2019-01-29T00:56:39.822Z,1.60
2019-01-29T00:59:12.110Z,1.60
2019-01-29T01:01:44.805Z,1.60
2019-01-29T01:04:17.424Z,1.60
2019-01-29T01:06:49.883Z,1.60
2019-01-29T01:09:22.370Z,1.60
2019-01-29T01:11:54.651Z,1.60
2019-01-29T01:14:27.230Z,1.70
2019-01-29T01:16:59.774Z,1.70
2019-01-29T01:19:32.036Z,1.70
2019-01-29T01:22:04.468Z,1.70
2019-01-29T01:24:37.005Z,1.70
2019-01-29T01:27:09.461Z,1.70
2019-01-29T01:29:42.100Z,1.70
2019-01-29T01:32:14.547Z,1.70
2019-01-29T01:34:47.019Z,1.70
2019-01-29T01:37:19.635Z,1.60
2019-01-29T01:39:51.802Z,1.60
2019-01-29T01:42:24.781Z,1.60
2019-01-29T01:44:57.168Z,1.60
2019-01-29T01:47:29.953Z,1.60
2019-01-29T01:50:02.276Z,1.50
2019-01-29T01:52:34.590Z,1.60
2019-01-29T01:55:08.654Z,1.60
2019-01-29T01:57:41.180Z,1.70
2019-01-29T02:00:19.789Z,1.70
2019-01-29T02:02:52.707Z,1.60
2019-01-29T02:05:25.203Z,1.60
2019-01-29T02:07:57.995Z,1.60
2019-01-29T02:10:32.236Z,1.60
2019-01-29T02:13:05.576Z,1.60
2019-01-29T02:15:37.767Z,1.60
2019-01-29T02:18:10.140Z,1.50
2019-01-29T02:20:42.366Z,1.50
2019-01-29T02:23:14.628Z,1.50
2019-01-29T02:25:47.413Z,1.50
2019-01-29T02:28:20.041Z,1.60
2019-01-29T02:30:52.462Z,1.70
2019-01-29T02:33:25.244Z,1.70
2019-01-29T02:35:57.566Z,1.60
2019-01-29T02:38:29.896Z,1.60
2019-01-29T02:41:02.392Z,1.70
2019-01-29T02:43:34.793Z,1.70
2019-01-29T02:46:07.421Z,1.70
2019-01-29T02:48:39.946Z,1.70
2019-01-29T02:51:12.422Z,1.70
2019-01-29T02:53:44.841Z,1.70
2019-01-29T02:56:17.441Z,1.70
2019-01-29T02:58:51.535Z,1.70
2019-01-29T03:01:23.879Z,1.70
2019-01-29T03:03:56.211Z,1.60
2019-01-29T03:06:28.546Z,1.60
2019-01-29T03:09:01.006Z,1.60
2019-01-29T03:11:33.456Z,1.70
2019-01-29T03:14:06.423Z,1.70
2019-01-29T03:16:38.703Z,1.80
2019-01-29T03:19:11.121Z,1.80
2019-01-29T03:21:43.678Z,1.90
2019-01-29T03:24:16.220Z,2.00
2019-01-29T03:26:48.480Z,2.10
2019-01-29T03:29:21.203Z,2.20
2019-01-29T03:31:53.588Z,2.20
2019-01-29T03:34:26.055Z,2.20
2019-01-29T03:36:58.484Z,2.30
2019-01-29T03:39:30.920Z,2.30
2019-01-29T03:42:03.279Z,2.40
2019-01-29T03:44:35.948Z,2.40
2019-01-29T03:47:08.322Z,2.50
2019-01-29T03:49:40.991Z,2.50
2019-01-29T03:52:13.388Z,2.60
2019-01-29T03:54:45.924Z,2.60
2019-01-29T03:57:18.529Z,2.60
2019-01-29T03:59:51.385Z,2.60
2019-01-29T04:02:23.771Z,2.60
2019-01-29T04:04:56.288Z,2.60
2019-01-29T04:07:28.887Z,2.60
2019-01-29T04:10:01.668Z,2.60
2019-01-29T04:12:34.514Z,2.60
2019-01-29T04:15:09.266Z,2.60
2019-01-29T04:17:41.850Z,2.60
2019-01-29T04:20:17.909Z,2.60
2019-01-29T04:22:50.653Z,2.60
2019-01-29T04:25:23.658Z,2.60
2019-01-29T04:27:56.336Z,2.60
2019-01-29T04:30:43.368Z,2.60
2019-01-29T04:33:16.245Z,2.70
2019-01-29T04:35:49.264Z,2.60
2019-01-29T04:38:21.763Z,2.70
2019-01-29T04:40:54.857Z,2.70
2019-01-29T04:43:27.070Z,2.70
2019-01-29T04:45:59.719Z,2.80
2019-01-29T04:48:31.985Z,2.80
2019-01-29T04:51:04.307Z,2.80
2019-01-29T04:53:36.856Z,2.80
2019-01-29T04:56:09.290Z,2.90
2019-01-29T04:58:41.549Z,2.90
2019-01-29T05:01:13.875Z,2.80
2019-01-29T05:03:46.566Z,2.90
2019-01-29T05:06:18.878Z,2.90
2019-01-29T05:08:51.319Z,3.00
2019-01-29T05:11:23.587Z,2.90
2019-01-29T05:13:55.750Z,2.90
2019-01-29T05:16:28.328Z,2.90
2019-01-29T05:19:00.748Z,3.00
2019-01-29T05:21:33.150Z,3.10
2019-01-29T05:24:06.971Z,3.00
2019-01-29T05:26:40.342Z,3.00
2019-01-29T05:29:13.033Z,3.00
2019-01-29T05:31:46.412Z,3.00
2019-01-29T05:34:19.119Z,2.90
2019-01-29T05:36:51.695Z,3.00
2019-01-29T05:39:24.057Z,3.00
2019-01-29T05:41:56.456Z,3.00
2019-01-29T05:44:28.751Z,3.10
2019-01-29T05:47:01.323Z,3.00
2019-01-29T05:49:33.775Z,3.00
2019-01-29T05:52:06.410Z,3.00
2019-01-29T05:54:38.896Z,2.90
2019-01-29T05:57:11.318Z,2.90
2019-01-29T05:59:43.596Z,3.00
2019-01-29T06:02:16.052Z,3.00
2019-01-29T06:04:48.748Z,3.00
2019-01-29T06:07:21.258Z,3.00
2019-01-29T06:09:54.245Z,3.00
2019-01-29T06:12:27.030Z,2.90
2019-01-29T06:15:01.264Z,2.90
2019-01-29T06:17:33.716Z,3.00
2019-01-29T06:20:08.310Z,3.00
2019-01-29T06:22:41.020Z,3.00
2019-01-29T06:25:14.991Z,3.00
2019-01-29T06:27:47.850Z,3.00
2019-01-29T06:30:24.078Z,3.00
2019-01-29T06:32:56.669Z,3.00
2019-01-29T06:35:29.230Z,3.10
2019-01-29T06:38:01.447Z,3.10
2019-01-29T06:40:34.803Z,3.20
2019-01-29T06:43:07.376Z,3.20
2019-01-29T06:45:39.957Z,3.20
2019-01-29T06:48:12.600Z,3.10
2019-01-29T06:50:45.031Z,3.10
2019-01-29T06:53:17.507Z,3.10
2019-01-29T06:55:49.772Z,3.10
2019-01-29T06:58:22.641Z,3.10
2019-01-29T07:00:55.352Z,3.20
2019-01-29T07:03:27.815Z,3.20
2019-01-29T07:06:00.504Z,3.30
2019-01-29T07:08:32.788Z,3.20
2019-01-29T07:11:05.418Z,3.10
2019-01-29T07:13:37.697Z,3.10
2019-01-29T07:16:21.935Z,3.20
2019-01-29T07:18:58.790Z,3.30
2019-01-29T07:21:31.435Z,3.60
2019-01-29T07:24:04.012Z,4.10
2019-01-29T07:26:36.376Z,4.50
2019-01-29T07:29:09.169Z,4.60
2019-01-29T07:31:42.384Z,4.80
2019-01-29T07:34:14.996Z,4.90
2019-01-29T07:36:47.508Z,4.90
2019-01-29T07:39:19.871Z,5.00
2019-01-29T07:41:52.214Z,5.30
2019-01-29T07:44:24.684Z,5.80
2019-01-29T07:46:57.101Z,6.10
2019-01-29T07:49:29.368Z,6.60
2019-01-29T07:52:01.993Z,7.00
2019-01-29T07:54:34.331Z,7.40
2019-01-29T07:57:06.814Z,7.70
2019-01-29T07:59:39.666Z,7.80
2019-01-29T08:02:12.039Z,7.90
2019-01-29T08:04:44.685Z,8.00
2019-01-29T08:07:17.641Z,8.50
2019-01-29T08:09:50.321Z,8.80
2019-01-29T08:12:22.633Z,9.00
2019-01-29T08:14:55.342Z,9.10
2019-01-29T08:17:27.917Z,9.30
2019-01-29T08:20:00.841Z,9.30
2019-01-29T08:22:33.375Z,9.50
2019-01-29T08:25:06.233Z,9.80
2019-01-29T08:27:38.861Z,10.00
2019-01-29T08:30:11.555Z,10.30
2019-01-29T08:32:43.855Z,10.00
2019-01-29T08:35:16.590Z,10.10
2019-01-29T08:37:49.014Z,10.00
2019-01-29T08:40:21.636Z,10.10
2019-01-29T08:42:54.242Z,10.00
2019-01-29T08:45:26.744Z,10.10
2019-01-29T08:47:59.202Z,10.20
2019-01-29T08:50:31.781Z,10.70
2019-01-29T08:53:04.696Z,10.80
2019-01-29T08:55:37.458Z,10.70
2019-01-29T08:58:11.569Z,10.60
2019-01-29T09:00:44.302Z,10.90
2019-01-29T09:03:17.568Z,11.00
2019-01-29T09:05:50.635Z,11.30
2019-01-29T09:08:23.107Z,11.10
2019-01-29T09:11:06.979Z,10.70
2019-01-29T09:13:40.582Z,10.10
2019-01-29T09:16:13.068Z,9.80
2019-01-29T09:18:45.654Z,9.50
2019-01-29T09:21:18.021Z,9.60
2019-01-29T09:23:50.619Z,10.00
2019-01-29T09:26:23.283Z,10.50
2019-01-29T09:28:56.421Z,11.50
2019-01-29T09:31:29.064Z,12.50
2019-01-29T09:34:01.648Z,13.10
2019-01-29T09:36:35.123Z,13.20
2019-01-29T09:39:11.502Z,12.50
2019-01-29T09:41:44.118Z,12.00
2019-01-29T09:44:16.538Z,11.00
2019-01-29T09:46:49.019Z,10.40
2019-01-29T09:49:21.748Z,10.20
2019-01-29T09:51:54.477Z,10.30
2019-01-29T09:54:26.975Z,10.70
2019-01-29T09:56:59.553Z,11.50
2019-01-29T09:59:32.159Z,12.20
2019-01-29T10:02:05.385Z,12.50
2019-01-29T10:04:38.078Z,12.70
2019-01-29T10:07:10.560Z,12.80
2019-01-29T10:09:43.122Z,13.00
2019-01-29T10:12:15.901Z,13.10
2019-01-29T10:14:50.231Z,13.00
2019-01-29T10:17:23.402Z,12.80
2019-01-29T10:20:02.464Z,12.90
2019-01-29T10:22:30.367Z,13.10
2019-01-29T10:25:02.781Z,13.20
2019-01-29T10:27:35.470Z,13.00
2019-01-29T10:30:10.237Z,13.10
2019-01-29T10:32:43.338Z,13.70
2019-01-29T10:35:19.529Z,13.70
2019-01-29T10:37:52.206Z,13.60
2019-01-29T10:40:27.022Z,13.80
2019-01-29T10:43:00.361Z,14.30
2019-01-29T10:45:33.791Z,14.30
2019-01-29T10:48:07.885Z,14.30
2019-01-29T10:50:40.562Z,14.00
2019-01-29T10:53:14.566Z,14.30
2019-01-29T10:55:47.756Z,14.70
2019-01-29T10:58:20.321Z,15.00
2019-01-29T11:00:53.425Z,14.60
2019-01-29T11:03:26.111Z,14.40
2019-01-29T11:05:58.741Z,14.20
2019-01-29T11:08:31.274Z,14.10
2019-01-29T11:11:03.818Z,13.70
2019-01-29T11:13:36.472Z,13.60
2019-01-29T11:16:09.346Z,13.40
2019-01-29T11:18:41.975Z,13.40
2019-01-29T11:21:14.827Z,13.10
2019-01-29T11:24:07.402Z,13.20
2019-01-29T11:26:40.156Z,12.60
2019-01-29T11:29:13.647Z,11.90
2019-01-29T11:31:46.770Z,11.20
2019-01-29T11:34:20.232Z,10.90
2019-01-29T11:36:53.119Z,10.60
2019-01-29T11:39:26.035Z,11.10
2019-01-29T11:41:58.837Z,11.60
2019-01-29T11:44:31.594Z,11.80
2019-01-29T11:47:06.472Z,11.70
2019-01-29T11:49:39.025Z,11.70
2019-01-29T11:52:11.788Z,11.70
2019-01-29T11:54:44.793Z,11.80
2019-01-29T11:57:17.772Z,11.70
2019-01-29T11:59:50.578Z,11.80
2019-01-29T12:02:28.226Z,11.90
2019-01-29T12:04:57.453Z,11.70
2019-01-29T12:07:30.006Z,11.50
2019-01-29T12:10:02.504Z,11.30
2019-01-29T12:12:35.072Z,10.90
2019-01-29T12:15:10.123Z,10.50
2019-01-29T12:17:42.776Z,10.40
2019-01-29T12:20:16.047Z,10.40
2019-01-29T12:22:48.962Z,10.40
2019-01-29T12:25:21.924Z,10.50
2019-01-29T12:27:54.595Z,10.00
2019-01-29T12:30:27.324Z,10.10
2019-01-29T12:33:00.777Z,10.20
2019-01-29T12:35:33.332Z,10.40
2019-01-29T12:38:06.269Z,10.50
2019-01-29T12:40:38.742Z,10.20
2019-01-29T12:43:11.206Z,9.90
2019-01-29T12:45:43.774Z,10.00
2019-01-29T12:48:16.706Z,10.10
2019-01-29T12:50:54.263Z,10.10
2019-01-29T12:53:45.593Z,10.10
2019-01-29T12:56:21.486Z,10.00
2019-01-29T12:58:54.181Z,9.90
2019-01-29T13:01:27.520Z,9.90
2019-01-29T13:04:00.068Z,9.90
2019-01-29T13:06:32.462Z,9.80
2019-01-29T13:09:10.299Z,9.80
2019-01-29T13:11:42.792Z,10.10
2019-01-29T13:14:15.212Z,10.10
2019-01-29T13:16:47.688Z,9.80
2019-01-29T13:19:20.233Z,9.30
2019-01-29T13:21:52.692Z,9.30
2019-01-29T13:24:24.969Z,9.00
2019-01-29T13:26:57.578Z,8.60
2019-01-29T13:29:29.854Z,8.50
2019-01-29T13:32:02.359Z,8.50
2019-01-29T13:34:34.689Z,8.40
2019-01-29T13:37:07.440Z,8.30
2019-01-29T13:39:39.847Z,8.30
2019-01-29T13:42:12.127Z,8.20
2019-01-29T13:44:44.526Z,8.10
2019-01-29T13:47:17.320Z,8.00
2019-01-29T13:49:50.567Z,7.80
2019-01-29T13:52:23.325Z,7.70
2019-01-29T13:54:56.991Z,7.60
2019-01-29T13:57:29.596Z,7.70
2019-01-29T14:00:01.885Z,7.70
2019-01-29T14:02:34.295Z,7.80
2019-01-29T14:05:07.779Z,7.90
2019-01-29T14:07:40.274Z,8.00
2019-01-29T14:10:13.871Z,7.70
2019-01-29T14:12:46.528Z,7.60
2019-01-29T14:15:39.132Z,7.40
2019-01-29T14:18:12.327Z,7.50
2019-01-29T14:20:44.713Z,7.40
2019-01-29T14:23:17.220Z,7.50
2019-01-29T14:25:49.828Z,7.50
2019-01-29T14:28:22.442Z,7.60
2019-01-29T14:30:55.053Z,7.40
2019-01-29T14:33:27.348Z,7.30
2019-01-29T14:36:00.101Z,7.30
2019-01-29T14:39:24.437Z,7.10
2019-01-29T14:41:57.215Z,6.90
2019-01-29T14:44:37.183Z,6.80
2019-01-29T14:47:10.616Z,6.80
2019-01-29T14:49:43.071Z,6.80
2019-01-29T14:52:15.514Z,6.90
2019-01-29T14:54:48.043Z,6.90
2019-01-29T14:57:20.540Z,7.00
2019-01-29T14:59:52.824Z,6.80
2019-01-29T15:02:25.143Z,6.80
2019-01-29T15:04:57.806Z,6.70
2019-01-29T15:07:30.793Z,6.60
2019-01-29T15:10:03.520Z,6.70
2019-01-29T15:12:35.851Z,6.60
2019-01-29T15:15:12.148Z,6.50
2019-01-29T15:17:48.399Z,6.40
2019-01-29T15:20:20.949Z,6.40
2019-01-29T15:22:53.951Z,6.30
2019-01-29T15:25:26.253Z,6.30
2019-01-29T15:27:58.854Z,6.40
2019-01-29T15:30:31.459Z,6.40
2019-01-29T15:33:03.800Z,6.30
2019-01-29T15:35:36.472Z,6.30
2019-01-29T15:38:08.919Z,6.30
2019-01-29T15:40:41.215Z,6.10
2019-01-29T15:43:13.703Z,5.90
2019-01-29T15:45:46.245Z,5.80
2019-01-29T15:48:18.544Z,5.50
2019-01-29T15:50:50.993Z,5.50
2019-01-29T15:53:23.531Z,5.50
2019-01-29T15:55:55.923Z,5.50
2019-01-29T15:58:28.553Z,5.20
2019-01-29T16:01:00.907Z,5.10
2019-01-29T16:03:33.269Z,5.00
2019-01-29T16:06:06.067Z,4.90
2019-01-29T16:08:38.448Z,4.80
2019-01-29T16:11:10.979Z,4.70
2019-01-29T16:13:43.400Z,4.60
2019-01-29T16:16:15.782Z,4.50
2019-01-29T16:18:48.214Z,4.40
2019-01-29T16:21:20.604Z,4.40
2019-01-29T16:23:53.029Z,4.50
2019-01-29T16:26:25.500Z,4.30
2019-01-29T16:28:58.164Z,4.20
2019-01-29T16:31:30.618Z,4.00
2019-01-29T16:34:02.998Z,4.00
2019-01-29T16:36:35.550Z,4.20
2019-01-29T16:39:10.969Z,4.00
2019-01-29T16:41:50.211Z,3.80
2019-01-29T16:44:25.521Z,3.70
2019-01-29T16:46:58.303Z,3.50
2019-01-29T16:49:30.748Z,3.50
2019-01-29T16:52:03.298Z,3.50
2019-01-29T16:54:35.784Z,3.50
2019-01-29T16:57:08.518Z,3.50
2019-01-29T16:59:40.983Z,3.50
2019-01-29T17:02:13.962Z,3.70
2019-01-29T17:04:46.338Z,3.80
2019-01-29T17:07:18.810Z,4.00
2019-01-29T17:09:51.540Z,3.90
2019-01-29T17:12:24.165Z,3.90
2019-01-29T17:14:56.548Z,3.90
2019-01-29T17:17:29.277Z,3.80
2019-01-29T17:20:01.721Z,3.80
2019-01-29T17:22:34.898Z,3.80
2019-01-29T17:25:07.997Z,3.70
2019-01-29T17:27:40.817Z,3.50
2019-01-29T17:30:32.829Z,3.30
2019-01-29T17:33:06.128Z,3.40
2019-01-29T17:35:40.631Z,3.30
2019-01-29T17:38:13.426Z,3.20
2019-01-29T17:40:48.160Z,3.20
2019-01-29T17:43:20.600Z,3.20
2019-01-29T17:45:53.366Z,3.10
2019-01-29T17:48:26.159Z,3.10
2019-01-29T17:50:58.628Z,3.00
2019-01-29T17:53:31.281Z,2.90
2019-01-29T17:56:03.708Z,2.90
2019-01-29T17:58:38.405Z,2.80
2019-01-29T18:01:11.477Z,2.80
2019-01-29T18:03:47.092Z,2.70
2019-01-29T18:06:20.189Z,2.60
2019-01-29T18:08:54.276Z,2.60
2019-01-29T18:11:26.784Z,2.70
2019-01-29T18:13:59.136Z,2.50
2019-01-29T18:16:31.607Z,2.50
2019-01-29T18:19:04.645Z,2.50
2019-01-29T18:21:37.559Z,2.40
2019-01-29T18:24:10.179Z,2.30
2019-01-29T18:26:42.809Z,2.40
2019-01-29T18:29:15.281Z,2.30
2019-01-29T18:31:47.935Z,2.40
2019-01-29T18:34:20.310Z,2.30
2019-01-29T18:36:52.930Z,2.30
2019-01-29T18:39:25.796Z,2.40
2019-01-29T18:41:58.402Z,2.20
2019-01-29T18:44:31.025Z,2.30
2019-01-29T18:47:03.408Z,2.20
2019-01-29T18:49:35.764Z,2.30
2019-01-29T18:52:08.185Z,2.10
2019-01-29T18:54:40.864Z,2.10
2019-01-29T18:57:13.554Z,2.00
2019-01-29T18:59:46.045Z,1.90
2019-01-29T19:02:18.713Z,1.90
2019-01-29T19:04:51.072Z,1.70
2019-01-29T19:07:23.454Z,1.70
2019-01-29T19:09:56.047Z,1.80
2019-01-29T19:12:28.472Z,1.90
2019-01-29T19:15:01.024Z,2.00
2019-01-29T19:17:33.511Z,2.00
2019-01-29T19:20:07.271Z,1.90
2019-01-29T19:22:39.562Z,1.90
2019-01-29T19:25:14.148Z,2.10
2019-01-29T19:27:46.599Z,2.20
2019-01-29T19:30:28.346Z,2.20
2019-01-29T19:33:01.063Z,2.00
2019-01-29T19:35:33.785Z,1.70
2019-01-29T19:38:06.657Z,1.50
2019-01-29T19:40:40.487Z,1.50
2019-01-29T19:43:13.713Z,1.30
2019-01-29T19:45:47.026Z,1.20
2019-01-29T19:48:19.775Z,1.20
2019-01-29T19:50:52.266Z,1.00
2019-01-29T19:53:24.782Z,0.90
2019-01-29T19:55:57.391Z,0.90
2019-01-29T19:58:32.351Z,0.90
2019-01-29T20:01:04.608Z,1.00
2019-01-29T20:03:37.509Z,1.00
2019-01-29T20:06:10.495Z,1.20
2019-01-29T20:08:43.980Z,1.10
2019-01-29T20:11:16.626Z,0.90
2019-01-29T20:13:49.844Z,1.00
2019-01-29T20:16:23.072Z,1.00
2019-01-29T20:18:56.017Z,1.00
2019-01-29T20:21:29.372Z,1.00
2019-01-29T20:24:01.998Z,0.90
2019-01-29T20:26:34.523Z,0.70
2019-01-29T20:29:07.289Z,0.50
2019-01-29T20:31:39.701Z,0.40
2019-01-29T20:34:12.345Z,0.30
2019-01-29T20:36:46.255Z,0.30
2019-01-29T20:39:19.165Z,0.20
2019-01-29T20:41:52.689Z,0.20
2019-01-29T20:44:25.072Z,0.20
2019-01-29T20:46:59.030Z,0.20
2019-01-29T20:49:33.050Z,0.30
2019-01-29T20:52:06.196Z,0.30
2019-01-29T20:54:39.076Z,0.40
2019-01-29T20:57:11.769Z,0.30
2019-01-29T20:59:44.674Z,0.30
2019-01-29T21:02:17.396Z,0.30
2019-01-29T21:04:50.081Z,1.10
2019-01-29T21:07:23.392Z,1.30
2019-01-29T21:09:56.045Z,1.00
2019-01-29T21:12:28.943Z,0.70
2019-01-29T21:15:01.685Z,0.50
2019-01-29T21:17:34.358Z,0.40
2019-01-29T21:20:09.077Z,0.30
2019-01-29T21:22:41.463Z,0.20
2019-01-29T21:25:14.868Z,0.20
2019-01-29T21:27:49.129Z,0.20
2019-01-29T21:30:33.789Z,0.20
2019-01-29T21:33:06.943Z,0.10
2019-01-29T21:35:39.753Z,0.00
2019-01-29T21:38:12.464Z,0.10
2019-01-29T21:40:45.871Z,0.20
2019-01-29T21:43:19.495Z,0.10
2019-01-29T21:45:52.029Z,0.20
2019-01-29T21:48:25.255Z,0.20
2019-01-29T21:50:59.836Z,0.20
2019-01-29T21:53:32.328Z,0.20
2019-01-29T21:56:05.367Z,0.20
2019-01-29T21:58:37.909Z,0.30
2019-01-29T22:01:11.623Z,0.40
2019-01-29T22:03:45.938Z,0.10
2019-01-29T22:06:19.181Z,0.00
2019-01-29T22:08:51.816Z,0.00
2019-01-29T22:11:25.425Z,0.00
2019-01-29T22:14:00.553Z,-0.10
2019-01-29T22:16:32.035Z,0.00
2019-01-29T22:19:04.678Z,-0.10
2019-01-29T22:21:37.242Z,0.00
2019-01-29T22:24:11.088Z,-0.10
2019-01-29T22:26:43.893Z,-0.20
2019-01-29T22:29:23.210Z,-0.10
2019-01-29T22:31:50.688Z,-0.20
2019-01-29T22:34:23.313Z,-0.40
2019-01-29T22:36:57.190Z,-0.50
2019-01-29T22:39:29.883Z,-0.50
2019-01-29T22:42:03.365Z,-0.50
2019-01-29T22:44:35.820Z,-0.60
2019-01-29T22:47:08.140Z,-0.60
2019-01-29T22:49:40.563Z,-0.60
2019-01-29T22:52:13.503Z,-0.70
2019-01-29T22:54:46.319Z,-0.80
2019-01-29T22:57:18.920Z,-0.70
2019-01-29T22:59:51.547Z,-0.60
2019-01-29T23:02:24.092Z,-0.60
2019-01-29T23:04:56.640Z,-0.60
2019-01-29T23:07:36.141Z,-0.70
2019-01-29T23:10:15.490Z,-0.70
2019-01-29T23:12:48.097Z,-0.70
2019-01-29T23:15:21.309Z,-0.80
2019-01-29T23:17:54.010Z,-0.90
2019-01-29T23:20:27.080Z,-0.90
2019-01-29T23:22:59.818Z,-0.80
2019-01-29T23:25:32.300Z,-0.70
2019-01-29T23:28:05.058Z,-0.70
2019-01-29T23:30:37.949Z,-0.90
2019-01-29T23:33:10.701Z,-1.00
2019-01-29T23:35:44.019Z,-1.00
2019-01-29T23:38:16.575Z,-0.90
2019-01-29T23:40:49.151Z,-0.80
2019-01-29T23:43:21.708Z,-0.80
2019-01-29T23:45:55.076Z,-0.90
2019-01-29T23:48:28.004Z,-0.90
2019-01-29T23:51:00.531Z,-1.00
2019-01-29T23:53:33.000Z,-1.10
2019-01-29T23:56:06.719Z,-1.10
2019-01-29T23:58:39.790Z,-1.00
